Tropical Cyclones
[Index]
Main Index Home Page Stock Weather Photos Extreme Storms Discussion Storm News and Storm Chasing Reports Tropical Cyclones / Hurricanes / Typhoons Weather Data and Links Wild Fires / Bushfires Weather Observation Techniques Weather Picture Catalogue Tornado Pictures and Reports Stock Video Footage and DVDs for sale
Season 1982-1983 Tropical Cyclone TOMASI Track Map
Season 1982-1983 Summaries: [BoM-AU] [JTWC-AU] [JTWC-SIO] [JTWC-SPAC] [JTWC-SH]
<<- Previous TC | JTWC 1982-1983 Season | Next TC ->>

click for intensity scale information  Lat/long Grid: Show Hide

 Date Labels: Show Hide

Joint Typhoon Warning Centre Cyclone Data

Name: TOMASI

27 Mar 1983 00:00 UTC to 03 Apr 1983 12:00 UTC

    date/time    lat    long     hPa   cat  kts
1983-03-27 00    7.7   156.2W                 25          
1983-03-27 06    8.3   156.0W                 28          
1983-03-27 12    8.8   156.1W                 30          
1983-03-27 18    9.4   156.4W                 29          
1983-03-28 00   10.0   157.0W                 30          
1983-03-28 06   10.4   157.7W                 32          
1983-03-28 12   10.9   158.5W                 35          
1983-03-28 18   11.2   159.2W                 37          
1983-03-29 00   11.7   160.2W           1     40          
1983-03-29 06   12.3   161.5W           1     43          
1983-03-29 12   13.2   163.1W           1     49          
1983-03-29 18   14.1   164.5W           2     60          
1983-03-30 00   15.1   165.7W           2     70          
1983-03-30 06   15.7   166.4W           3     80          
1983-03-30 12   16.3   167.0W           3     90          
1983-03-30 18   17.0   167.5W           3     96          
1983-03-31 00   17.8   168.0W           4    100          
1983-03-31 06   18.4   168.2W           4    102          
1983-03-31 12   19.1   168.4W           4    100          
1983-03-31 18   19.6   168.5W           3     92          
1983-04-01 00   20.2   168.5W           3     85          
1983-04-01 06   20.9   168.4W           3     77          
1983-04-01 12   21.7   168.3W           2     70          
1983-04-01 18   22.3   168.2W           2     62          
1983-04-02 00   23.0   168.1W           2     55          
1983-04-02 06   23.5   167.8W           1     49          
1983-04-02 12   24.0   167.6W           1     45          
1983-04-02 18   24.4   167.2W           1     42          
1983-04-03 00   24.8   167.0W           1     40          
1983-04-03 06   25.1   166.8W                 35          
1983-04-03 12   25.6   166.7W                 30          
Winds are 1-min average.

Tropical cyclone tracks developed by Michael Bath using data from the Joint Typhoon Warning Centre Best Tracks and Google Maps.


[Australian Severe Weather index] [Copyright Notice] [Email Contacts] [Search This Site] [Privacy Policy]
Document: tropical_cyclone_tomasi.htm Updated: 18 September 2016